logo
Search for airport 
image banner adimage banner adimage banner ad
image banner ad

EDOH - Langhennersdorf

Located in Freiberg, Germany

ICAO - EDOH, IATA -

Data provided by Airmate  

General information

Coordinates: N50°56'54" E13°15'42"
Elevation is 1266 feet MSL.
Magnetic variation is 4.0000° East
View others Airports in Saxony

Operational data

Special qualification required
Current time UTC:
Current local time:
Weather at : EDDC - Dresden ( 41 km )
METAR: EDDC 280050Z AUTO VRB02KT 9999 VCSH FEW///TCU 15/14 Q1014
TAF: TAF EDDC 272300Z 2800/2824 20004KT 9999 SCT020CB BECMG 2800/2802 BKN040 TEMPO 2803/2808 27006KT 4000 RA BKN012
View NOTAMs / SUP AIP / TFR affecting this airport [VIEW]
Communications frequencies: [VIEW]

Runways:

RWY identifierQFULength (ft)Width (ft)SurfaceLDA (ft)
0554°2953131GRASS900
23234°2953131GRASS900

Airport contact information

Address: Freiberg Germany

Satellite view of EDOH